Time;durP1;ratioP1;P1;durP2;ratioP2;P2;SDS_P1;SDS_P2;PMS_P1;PMS_P2;Temp;Humidity;BMP_temperature;BMP_pressure;BME280_temperature;BME280_humidity;BME280_pressure;Samples;Min_cycle;Max_cycle;Signal;HPM_P1;HPM_P2
2021/04/24 00:01:47;;;;;;;27.50;25.60;;;7.50;65.00;;;;;;5094503;28;20302;-77
2021/04/24 00:04:15;;;;;;;27.58;25.85;;;7.50;65.10;;;;;;5094782;28;20726;-77
2021/04/24 00:06:41;;;;;;;26.88;25.05;;;7.50;65.00;;;;;;5094131;28;20314;-77
2021/04/24 00:09:08;;;;;;;26.25;24.55;;;7.50;64.50;;;;;;5094506;28;20264;-76
2021/04/24 00:11:35;;;;;;;27.65;25.60;;;7.50;65.00;;;;;;5094403;28;20215;-77
2021/04/24 00:14:02;;;;;;;27.35;25.58;;;7.40;66.20;;;;;;5094525;28;20340;-77
2021/04/24 00:16:29;;;;;;;27.80;25.92;;;7.40;65.60;;;;;;5094018;28;20209;-77
2021/04/24 00:18:55;;;;;;;27.00;25.23;;;7.50;65.20;;;;;;5094468;28;20278;-77
2021/04/24 00:21:23;;;;;;;26.63;24.95;;;7.50;64.80;;;;;;5093682;28;20651;-77
2021/04/24 00:23:49;;;;;;;26.08;24.38;;;7.50;64.80;;;;;;5093669;28;20205;-77
2021/04/24 00:26:16;;;;;;;26.75;24.95;;;7.40;65.20;;;;;;5093755;28;20292;-77
2021/04/24 00:28:42;;;;;;;27.15;25.25;;;7.30;66.10;;;;;;5093779;28;20222;-77
2021/04/24 00:31:09;;;;;;;27.70;25.80;;;7.20;65.80;;;;;;5094065;28;20711;-77
2021/04/24 00:33:35;;;;;;;26.40;24.63;;;7.20;65.90;;;;;;5094149;28;20200;-77
2021/04/24 00:36:02;;;;;;;27.88;26.17;;;7.20;65.70;;;;;;5093362;28;20201;-77
2021/04/24 00:38:29;;;;;;;26.50;24.90;;;7.20;65.70;;;;;;5093918;28;20226;-77
2021/04/24 00:40:56;;;;;;;27.73;25.85;;;7.20;65.90;;;;;;5093643;28;20217;-77
2021/04/24 00:43:22;;;;;;;27.25;25.65;;;7.20;66.20;;;;;;5093790;28;20290;-77
2021/04/24 00:45:49;;;;;;;26.55;24.92;;;7.20;66.50;;;;;;5093281;28;20286;-77
2021/04/24 00:48:15;;;;;;;27.95;25.83;;;7.30;65.90;;;;;;5093554;28;20250;-77
2021/04/24 00:50:42;;;;;;;27.75;25.77;;;7.30;65.30;;;;;;5093599;28;20309;-77
2021/04/24 00:53:11;;;;;;;27.50;25.65;;;7.20;65.40;;;;;;5093747;28;20191;-77
2021/04/24 00:55:40;;;;;;;26.45;24.70;;;7.10;65.80;;;;;;5092990;28;20195;-77
2021/04/24 00:58:10;;;;;;;26.90;25.00;;;7.10;66.30;;;;;;5093536;28;20194;-77
2021/04/24 01:00:37;;;;;;;26.92;24.92;;;7.00;66.60;;;;;;5093432;28;20215;-77
2021/04/24 01:03:03;;;;;;;27.40;24.85;;;7.10;65.70;;;;;;5093461;28;20749;-76
2021/04/24 01:05:32;;;;;;;26.60;24.80;;;7.10;65.60;;;;;;5093081;28;20282;-76
2021/04/24 01:07:59;;;;;;;26.63;24.92;;;6.90;66.30;;;;;;5093280;28;20217;-76
2021/04/24 01:10:28;;;;;;;27.52;25.55;;;6.80;66.90;;;;;;5093129;28;20219;-77
2021/04/24 01:12:55;;;;;;;26.95;25.15;;;6.80;67.00;;;;;;5093280;28;20282;-77
2021/04/24 01:15:21;;;;;;;26.83;25.13;;;6.80;66.70;;;;;;5093103;28;20291;-77
2021/04/24 01:17:48;;;;;;;27.45;25.30;;;6.80;66.40;;;;;;5092903;28;20772;-77
2021/04/24 01:20:16;;;;;;;27.92;25.83;;;6.70;67.00;;;;;;5093278;28;20246;-78
2021/04/24 01:22:45;;;;;;;29.02;26.42;;;6.60;67.50;;;;;;5092550;28;20201;-77
2021/04/24 01:25:14;;;;;;;27.83;25.92;;;6.50;68.00;;;;;;5093139;28;20291;-77
2021/04/24 01:27:40;;;;;;;27.23;25.23;;;6.50;68.20;;;;;;5092457;28;20255;-77
2021/04/24 01:30:09;;;;;;;26.95;25.15;;;6.60;68.00;;;;;;5092997;28;20215;-77
2021/04/24 01:32:36;;;;;;;26.30;24.80;;;6.60;67.70;;;;;;5092817;28;20287;-77
2021/04/24 01:35:05;;;;;;;27.67;25.55;;;6.60;67.20;;;;;;5092818;28;20199;-77
2021/04/24 01:37:31;;;;;;;26.85;25.15;;;6.60;67.30;;;;;;5092288;28;20199;-77
2021/04/24 01:39:59;;;;;;;27.30;25.25;;;6.50;67.70;;;;;;5092910;28;20238;-77
2021/04/24 01:42:25;;;;;;;27.40;25.63;;;6.50;67.70;;;;;;5092697;28;20199;-77
2021/04/24 01:44:52;;;;;;;25.83;24.23;;;6.50;67.50;;;;;;5092647;28;20201;-78
2021/04/24 01:47:18;;;;;;;27.52;25.88;;;6.50;67.60;;;;;;5092008;28;20294;-77
2021/04/24 01:49:45;;;;;;;28.50;26.10;;;6.50;67.70;;;;;;5092453;28;20218;-77
2021/04/24 01:52:11;;;;;;;28.23;26.30;;;6.50;67.70;;;;;;5092646;28;20245;-77
2021/04/24 01:54:38;;;;;;;27.05;24.90;;;6.40;68.00;;;;;;5092604;28;20252;-77
2021/04/24 01:57:05;;;;;;;27.00;25.30;;;6.50;67.90;;;;;;5092031;28;20198;-78
2021/04/24 01:59:35;;;;;;;25.85;24.15;;;6.40;68.00;;;;;;5092648;28;20278;-76
2021/04/24 02:02:03;;;;;;;27.98;25.52;;;6.30;68.30;;;;;;5092403;28;20241;-79
2021/04/24 02:04:30;;;;;;;26.90;24.67;;;6.30;68.40;;;;;;5092392;28;20195;-77
2021/04/24 02:06:57;;;;;;;27.77;25.70;;;6.30;68.40;;;;;;5091848;28;20290;-77
2021/04/24 02:09:24;;;;;;;26.88;24.98;;;6.20;68.50;;;;;;5092364;28;20267;-77
2021/04/24 02:12:10;;;;;;;27.20;25.50;;;6.00;69.20;;;;;;5092327;28;20280;-77
2021/04/24 02:14:41;;;;;;;27.40;25.38;;;6.00;69.40;;;;;;5092741;28;20603;-77
2021/04/24 02:17:10;;;;;;;26.85;25.15;;;5.90;69.60;;;;;;5091647;28;20199;-77
2021/04/24 02:19:40;;;;;;;27.85;25.95;;;6.00;69.40;;;;;;5092458;28;20194;-77
2021/04/24 02:22:07;;;;;;;27.27;25.58;;;5.90;69.30;;;;;;5092018;28;20286;-77
2021/04/24 02:24:41;;;;;;;27.20;25.48;;;5.90;69.60;;;;;;5092465;28;20685;-77
2021/04/24 02:27:09;;;;;;;27.85;25.52;;;5.80;70.10;;;;;;5091366;28;20190;-77
2021/04/24 02:29:36;;;;;;;27.73;25.90;;;5.80;70.10;;;;;;5092156;28;20218;-77
2021/04/24 02:32:03;;;;;;;27.95;26.15;;;5.70;70.30;;;;;;5092081;28;20263;-78
2021/04/24 02:34:30;;;;;;;26.35;24.75;;;5.70;70.20;;;;;;5092288;28;20278;-76
2021/04/24 02:36:56;;;;;;;27.88;25.70;;;5.70;70.20;;;;;;5091900;28;20199;-76
2021/04/24 02:39:29;;;;;;;27.27;25.58;;;5.70;70.30;;;;;;5092279;28;20195;-76
2021/04/24 02:41:57;;;;;;;27.77;25.50;;;5.60;70.70;;;;;;5092025;28;20215;-76
2021/04/24 02:44:24;;;;;;;28.25;26.25;;;5.60;70.90;;;;;;5092006;28;20687;-77
2021/04/24 02:46:50;;;;;;;27.50;25.75;;;5.60;71.00;;;;;;5094123;28;20221;-77
2021/04/24 02:49:17;;;;;;;28.35;25.80;;;5.50;71.10;;;;;;5095945;28;20219;-78
2021/04/24 02:51:43;;;;;;;27.48;25.48;;;5.60;70.80;;;;;;5096073;28;20743;-77
2021/04/24 02:54:09;;;;;;;28.08;26.08;;;5.60;70.80;;;;;;5095878;28;20565;-77
2021/04/24 02:56:36;;;;;;;27.50;25.50;;;5.60;70.70;;;;;;5095265;28;20191;-77
2021/04/24 02:59:03;;;;;;;28.02;26.10;;;5.60;70.70;;;;;;5096032;28;20361;-77
2021/04/24 03:01:30;;;;;;;27.90;26.00;;;5.60;70.70;;;;;;5096456;28;20335;-76
2021/04/24 03:03:57;;;;;;;27.20;24.88;;;5.40;74.10;;;;;;5096406;28;20227;-76
2021/04/24 03:06:24;;;;;;;28.10;26.00;;;5.40;72.70;;;;;;5095796;28;20286;-76
2021/04/24 03:08:50;;;;;;;28.42;26.42;;;5.30;72.20;;;;;;5096927;28;20225;-76
2021/04/24 03:11:17;;;;;;;27.10;25.40;;;5.30;71.80;;;;;;5097668;28;20310;-76
2021/04/24 03:13:43;;;;;;;27.17;25.38;;;5.20;71.90;;;;;;5098311;28;20230;-77
2021/04/24 03:16:09;;;;;;;27.50;25.30;;;5.20;71.90;;;;;;5097534;28;20191;-76
2021/04/24 03:18:37;;;;;;;27.92;26.05;;;5.20;72.00;;;;;;5098245;28;20195;-76
2021/04/24 03:21:04;;;;;;;27.13;25.13;;;5.20;72.20;;;;;;5098345;28;20722;-76
2021/04/24 03:23:30;;;;;;;28.38;26.35;;;5.10;72.40;;;;;;5096681;28;20202;-76
2021/04/24 03:25:57;;;;;;;27.00;25.20;;;5.20;72.40;;;;;;5094925;28;20241;-76
2021/04/24 03:28:23;;;;;;;28.02;26.02;;;5.20;72.60;;;;;;5095244;28;20255;-77
2021/04/24 03:30:50;;;;;;;28.63;26.20;;;5.20;72.60;;;;;;5095304;28;20223;-76
2021/04/24 03:33:16;;;;;;;32.08;29.85;;;5.10;72.90;;;;;;5095347;28;20668;-76
2021/04/24 03:35:43;;;;;;;27.20;25.40;;;5.10;72.90;;;;;;5094610;28;20225;-76
2021/04/24 03:38:10;;;;;;;28.30;26.08;;;5.10;72.70;;;;;;5095144;28;20227;-77
2021/04/24 03:40:36;;;;;;;27.35;25.55;;;5.10;72.60;;;;;;5095085;28;20250;-76
2021/04/24 03:43:03;;;;;;;25.73;24.02;;;5.10;73.00;;;;;;5095177;28;20201;-77
2021/04/24 03:45:30;;;;;;;28.80;26.98;;;5.00;73.00;;;;;;5094341;28;20200;-77
2021/04/24 03:47:57;;;;;;;28.50;26.45;;;4.90;74.10;;;;;;5094831;28;20210;-76
2021/04/24 03:50:25;;;;;;;29.70;27.33;;;4.90;73.60;;;;;;5094680;28;20763;-77
2021/04/24 03:52:53;;;;;;;27.40;25.38;;;4.80;73.90;;;;;;5094884;28;21187;-76
2021/04/24 03:55:21;;;;;;;27.95;26.05;;;4.70;74.10;;;;;;5094678;28;20234;-77
2021/04/24 03:57:48;;;;;;;28.20;26.17;;;4.70;74.10;;;;;;5093208;28;20222;-77
2021/04/24 04:00:17;;;;;;;28.80;26.40;;;4.70;74.10;;;;;;5094930;28;20219;-76
2021/04/24 04:02:48;;;;;;;30.00;27.23;;;4.70;74.00;;;;;;5094657;28;20199;-77
2021/04/24 04:05:15;;;;;;;27.85;25.88;;;4.80;73.80;;;;;;5094622;28;20679;-77
2021/04/24 04:07:42;;;;;;;30.08;27.40;;;4.80;73.70;;;;;;5094048;28;20206;-76
2021/04/24 04:10:10;;;;;;;28.70;26.40;;;4.80;73.70;;;;;;5094534;28;20755;-76
2021/04/24 04:12:37;;;;;;;27.38;25.27;;;4.80;73.70;;;;;;5094494;28;20199;-77
2021/04/24 04:15:06;;;;;;;27.23;25.20;;;4.80;73.90;;;;;;5094523;28;20233;-78
2021/04/24 04:17:33;;;;;;;27.17;25.13;;;4.80;73.90;;;;;;5093866;28;20218;-77
2021/04/24 04:19:59;;;;;;;28.85;26.83;;;4.70;74.00;;;;;;5094301;28;20305;-77
2021/04/24 04:22:25;;;;;;;27.60;25.77;;;4.70;74.10;;;;;;5093739;28;20207;-76
2021/04/24 04:24:52;;;;;;;28.90;26.90;;;4.70;74.10;;;;;;5094378;28;20191;-77
2021/04/24 04:27:19;;;;;;;30.38;27.98;;;4.70;74.10;;;;;;5093415;28;20203;-76
2021/04/24 04:29:45;;;;;;;28.35;26.35;;;4.60;74.50;;;;;;5094163;28;20215;-76
2021/04/24 04:32:12;;;;;;;31.42;28.55;;;4.60;74.90;;;;;;5094021;28;20277;-76
2021/04/24 04:34:38;;;;;;;29.80;27.73;;;4.60;75.10;;;;;;5094080;28;20252;-76
2021/04/24 04:37:05;;;;;;;28.90;26.80;;;4.60;74.90;;;;;;5094329;28;20282;-76
2021/04/24 04:39:31;;;;;;;29.60;27.40;;;4.60;74.60;;;;;;5095833;28;20230;-76
2021/04/24 04:41:57;;;;;;;28.75;26.40;;;4.70;74.30;;;;;;5095640;28;20249;-76
2021/04/24 04:44:24;;;;;;;28.20;26.27;;;4.80;74.00;;;;;;5095467;28;20321;-76
2021/04/24 04:46:51;;;;;;;29.88;27.65;;;4.80;74.00;;;;;;5094805;28;20209;-76
2021/04/24 04:49:17;;;;;;;28.70;26.80;;;4.80;74.30;;;;;;5095221;28;20215;-77
2021/04/24 04:51:44;;;;;;;28.55;26.35;;;5.00;73.80;;;;;;5099030;28;20219;-78
2021/04/24 04:54:10;;;;;;;28.80;26.52;;;5.00;73.60;;;;;;5094123;28;20602;-78
2021/04/24 04:56:37;;;;;;;29.17;26.85;;;5.00;73.40;;;;;;5093231;28;20290;-78
2021/04/24 04:59:04;;;;;;;28.70;26.55;;;5.00;73.50;;;;;;5093707;28;20712;-78
2021/04/24 05:01:31;;;;;;;30.55;28.25;;;5.00;73.60;;;;;;5093288;28;20219;-77
2021/04/24 05:03:57;;;;;;;28.85;26.65;;;5.00;73.60;;;;;;5093489;28;20234;-76
2021/04/24 05:06:24;;;;;;;30.00;27.27;;;5.00;73.80;;;;;;5092862;28;20282;-77
2021/04/24 05:08:50;;;;;;;30.27;27.67;;;5.00;73.80;;;;;;5093268;28;20215;-76
2021/04/24 05:11:16;;;;;;;32.35;30.30;;;5.20;73.40;;;;;;5093358;28;20302;-76
2021/04/24 05:13:43;;;;;;;28.35;26.15;;;5.30;72.90;;;;;;5093348;28;20248;-78
2021/04/24 05:16:10;;;;;;;29.60;27.35;;;5.40;72.40;;;;;;5092587;28;20195;-77
2021/04/24 05:18:37;;;;;;;28.73;26.13;;;5.50;72.20;;;;;;5093135;28;20745;-76
2021/04/24 05:21:04;;;;;;;28.88;26.70;;;5.50;72.00;;;;;;5093101;28;20743;-77
2021/04/24 05:23:31;;;;;;;30.77;28.75;;;5.60;71.80;;;;;;5092663;28;20191;-77
2021/04/24 05:25:57;;;;;;;32.78;30.38;;;5.70;71.60;;;;;;5092555;28;20198;-77
2021/04/24 05:28:23;;;;;;;29.20;26.95;;;5.70;71.30;;;;;;5092708;28;20261;-79
2021/04/24 05:30:50;;;;;;;29.55;27.25;;;5.80;71.30;;;;;;5092918;28;20246;-78
2021/04/24 05:33:16;;;;;;;28.73;26.70;;;5.80;71.40;;;;;;5092906;28;20665;-77
2021/04/24 05:35:44;;;;;;;29.23;26.90;;;5.80;71.50;;;;;;5092454;28;20211;-77
2021/04/24 05:38:10;;;;;;;28.48;26.25;;;5.90;71.50;;;;;;5092861;28;20633;-77
2021/04/24 05:40:37;;;;;;;30.60;28.10;;;5.90;71.50;;;;;;5092700;28;20692;-77
2021/04/24 05:43:03;;;;;;;29.63;27.30;;;5.90;71.60;;;;;;5092676;28;20249;-77
2021/04/24 05:45:29;;;;;;;29.85;27.70;;;6.00;71.70;;;;;;5092153;28;20220;-77
2021/04/24 05:47:56;;;;;;;29.23;26.88;;;6.10;71.20;;;;;;5092593;28;20214;-77
2021/04/24 05:50:24;;;;;;;29.13;27.17;;;6.20;70.70;;;;;;5092603;28;20770;-77
2021/04/24 05:52:52;;;;;;;29.30;27.05;;;6.30;70.20;;;;;;5092650;28;20195;-77
2021/04/24 05:55:18;;;;;;;30.15;28.15;;;6.50;69.90;;;;;;5092958;28;20199;-77
2021/04/24 05:57:45;;;;;;;29.70;27.02;;;6.60;69.30;;;;;;5092157;28;20201;-78
2021/04/24 06:00:14;;;;;;;32.22;30.02;;;6.70;69.10;;;;;;5092721;28;20693;-78
2021/04/24 06:02:41;;;;;;;29.65;27.27;;;6.80;68.70;;;;;;5092645;28;20195;-78
2021/04/24 06:05:09;;;;;;;29.60;27.20;;;6.90;68.40;;;;;;5092408;28;20278;-78
2021/04/24 06:07:36;;;;;;;29.75;27.35;;;7.00;67.90;;;;;;5092003;28;20199;-78
2021/04/24 06:10:04;;;;;;;29.40;27.40;;;7.10;67.90;;;;;;5092408;28;20581;-78
2021/04/24 06:12:30;;;;;;;30.92;28.63;;;7.20;67.60;;;;;;5092537;28;20679;-78
2021/04/24 06:14:57;;;;;;;30.58;28.25;;;7.40;67.40;;;;;;5092360;28;20195;-78
2021/04/24 06:17:23;;;;;;;30.90;28.45;;;7.50;67.10;;;;;;5091853;28;20207;-78
2021/04/24 06:19:49;;;;;;;30.17;27.70;;;7.60;66.80;;;;;;5092008;28;20236;-78
2021/04/24 06:22:16;;;;;;;29.00;27.05;;;7.80;66.30;;;;;;5091548;28;20198;-78
2021/04/24 06:24:42;;;;;;;31.30;28.40;;;7.90;66.20;;;;;;5092286;28;20296;-78
2021/04/24 06:27:10;;;;;;;30.50;28.20;;;8.10;65.90;;;;;;5091435;28;20674;-78
2021/04/24 06:29:37;;;;;;;33.30;29.95;;;8.20;65.80;;;;;;5092421;28;20224;-77
2021/04/24 06:32:03;;;;;;;30.52;28.40;;;8.40;65.20;;;;;;5092201;28;20677;-78
2021/04/24 06:34:30;;;;;;;31.58;28.92;;;8.60;64.40;;;;;;5092266;28;20739;-77
2021/04/24 06:36:56;;;;;;;31.73;29.33;;;8.80;63.30;;;;;;5091677;28;20675;-78
2021/04/24 06:39:23;;;;;;;31.90;29.38;;;9.00;62.80;;;;;;5092254;28;20706;-77
2021/04/24 06:41:49;;;;;;;31.60;28.90;;;9.10;62.20;;;;;;5092108;28;20215;-78
2021/04/24 06:44:16;;;;;;;31.52;28.83;;;9.20;64.70;;;;;;5092196;28;20688;-78
2021/04/24 06:46:43;;;;;;;30.95;28.63;;;9.20;62.30;;;;;;5091261;28;20202;-80
2021/04/24 06:49:10;;;;;;;30.30;28.00;;;9.30;63.00;;;;;;5092085;28;20215;-78
2021/04/24 06:51:37;;;;;;;31.95;29.50;;;9.60;61.60;;;;;;5091846;28;20630;-80
2021/04/24 06:54:04;;;;;;;30.58;28.50;;;9.60;60.10;;;;;;5091985;28;20203;-79
2021/04/24 06:56:30;;;;;;;33.25;30.38;;;9.70;59.80;;;;;;5091311;28;20538;-78
2021/04/24 06:58:57;;;;;;;30.10;27.92;;;9.90;59.60;;;;;;5091862;28;20199;-78
2021/04/24 07:01:24;;;;;;;30.92;28.63;;;10.00;59.30;;;;;;5091772;28;20233;-80
2021/04/24 07:03:51;;;;;;;32.20;29.55;;;10.10;59.20;;;;;;5091860;28;20199;-78
2021/04/24 07:06:17;;;;;;;32.15;29.55;;;10.20;59.60;;;;;;5091206;28;20201;-78
2021/04/24 07:08:44;;;;;;;31.73;29.20;;;10.20;60.30;;;;;;5091598;28;20219;-79
2021/04/24 07:11:10;;;;;;;34.97;29.70;;;10.40;58.80;;;;;;5091583;28;20211;-77
2021/04/24 07:13:37;;;;;;;32.05;29.55;;;10.50;58.10;;;;;;5091819;28;20340;-77
2021/04/24 07:16:05;;;;;;;33.38;30.48;;;10.60;57.20;;;;;;5091113;28;20203;-78
2021/04/24 07:18:33;;;;;;;31.92;29.63;;;10.80;56.90;;;;;;5091772;28;20249;-78
2021/04/24 07:20:59;;;;;;;33.58;30.88;;;11.00;56.40;;;;;;5091604;28;20223;-79
2021/04/24 07:23:25;;;;;;;32.85;30.30;;;11.10;55.80;;;;;;5091144;28;20201;-78
2021/04/24 07:25:52;;;;;;;31.30;28.92;;;11.20;55.60;;;;;;5091028;28;20195;-78
2021/04/24 07:28:18;;;;;;;31.92;29.40;;;11.30;55.50;;;;;;5091495;28;20201;-78
2021/04/24 07:30:45;;;;;;;33.90;31.42;;;11.40;55.00;;;;;;5091300;28;20211;-78
2021/04/24 07:33:11;;;;;;;34.30;30.93;;;11.50;55.10;;;;;;5094463;28;20627;-79
2021/04/24 07:35:38;;;;;;;32.77;29.93;;;11.60;54.80;;;;;;5094698;28;20536;-78
2021/04/24 07:38:05;;;;;;;31.70;29.30;;;11.60;55.40;;;;;;5095248;28;20537;-78
2021/04/24 07:40:31;;;;;;;33.13;30.20;;;11.70;55.70;;;;;;5095179;28;20553;-79
2021/04/24 07:42:58;;;;;;;31.90;29.60;;;11.70;55.80;;;;;;5095196;28;20442;-78
2021/04/24 07:45:24;;;;;;;32.40;29.77;;;11.80;56.00;;;;;;5094943;28;20522;-78
2021/04/24 07:47:50;;;;;;;33.17;30.27;;;11.90;55.80;;;;;;5094759;28;20461;-78
2021/04/24 07:50:18;;;;;;;33.93;30.40;;;12.10;55.40;;;;;;5094913;28;20481;-78
2021/04/24 07:52:46;;;;;;;43.23;33.73;;;12.20;55.10;;;;;;5095209;28;20457;-78
2021/04/24 07:55:13;;;;;;;33.70;31.20;;;12.30;54.50;;;;;;5094963;28;20451;-75
2021/04/24 07:57:40;;;;;;;31.93;29.63;;;12.40;54.30;;;;;;5094267;28;20453;-75
2021/04/24 08:00:08;;;;;;;33.30;30.67;;;12.50;54.10;;;;;;5094650;28;20475;-75
2021/04/24 08:02:35;;;;;;;41.10;33.63;;;12.60;53.80;;;;;;5094723;28;20480;-75
2021/04/24 08:05:02;;;;;;;34.13;31.10;;;12.60;54.00;;;;;;5094512;28;20449;-75
2021/04/24 08:07:28;;;;;;;32.87;30.33;;;12.70;53.60;;;;;;5094092;28;20629;-75
2021/04/24 08:09:56;;;;;;;34.33;31.60;;;12.80;53.30;;;;;;5094321;28;20473;-75
2021/04/24 08:12:22;;;;;;;32.77;30.00;;;12.80;53.10;;;;;;5094552;28;20866;-75
2021/04/24 08:14:49;;;;;;;34.20;30.90;;;13.00;53.00;;;;;;5094488;28;20485;-75
2021/04/24 08:17:16;;;;;;;32.20;29.40;;;13.10;52.80;;;;;;5093908;28;20453;-78
2021/04/24 08:19:42;;;;;;;31.13;28.93;;;13.20;52.50;;;;;;5094572;28;20460;-78
2021/04/24 08:22:09;;;;;;;32.40;29.80;;;13.30;52.10;;;;;;5094221;28;20540;-79
2021/04/24 08:24:36;;;;;;;31.70;29.20;;;13.50;51.80;;;;;;5094511;28;20482;-78
2021/04/24 08:27:04;;;;;;;32.97;30.60;;;13.60;51.50;;;;;;5093715;28;20505;-78
2021/04/24 08:29:30;;;;;;;32.53;30.03;;;13.50;50.80;;;;;;5094048;28;20610;-78
2021/04/24 08:31:57;;;;;;;33.67;30.77;;;13.60;50.80;;;;;;5094063;28;20583;-79
2021/04/24 08:34:25;;;;;;;33.00;30.20;;;13.70;50.40;;;;;;5093935;28;20450;-77
2021/04/24 08:36:51;;;;;;;31.87;29.13;;;13.90;50.00;;;;;;5093598;28;20803;-79
2021/04/24 08:39:18;;;;;;;32.20;29.60;;;14.00;49.40;;;;;;5094052;28;20524;-79
2021/04/24 08:41:44;;;;;;;33.20;30.37;;;14.20;48.80;;;;;;5093665;28;20472;-78
2021/04/24 08:44:14;;;;;;;35.10;32.40;;;14.30;47.80;;;;;;5093147;28;20457;-78
2021/04/24 08:46:41;;;;;;;33.90;31.40;;;14.30;47.80;;;;;;5093198;28;20822;-78
2021/04/24 08:49:08;;;;;;;32.40;29.67;;;14.30;47.40;;;;;;5093639;28;20560;-78
2021/04/24 08:51:34;;;;;;;32.00;29.70;;;14.50;47.00;;;;;;5093800;28;20551;-78
2021/04/24 08:54:01;;;;;;;31.60;29.10;;;14.50;46.80;;;;;;5093735;28;20950;-78
2021/04/24 08:56:28;;;;;;;32.57;30.23;;;14.60;46.30;;;;;;5093211;28;20473;-78
2021/04/24 08:58:56;;;;;;;31.43;29.10;;;14.90;45.70;;;;;;5093472;28;20540;-77
2021/04/24 09:01:24;;;;;;;32.70;30.30;;;15.10;45.20;;;;;;5093563;28;20533;-79
2021/04/24 09:03:51;;;;;;;32.00;29.60;;;15.20;45.20;;;;;;5093367;28;20492;-78
2021/04/24 09:06:21;;;;;;;33.70;30.67;;;15.20;44.60;;;;;;5093113;28;20445;-78
2021/04/24 09:08:55;;;;;;;33.00;30.53;;;15.30;44.50;;;;;;5093201;28;20542;-78
2021/04/24 09:11:22;;;;;;;32.57;30.17;;;15.30;45.30;;;;;;5093380;28;20893;-78
2021/04/24 09:13:59;;;;;;;31.10;28.80;;;15.40;44.60;;;;;;5093118;28;20584;-78
2021/04/24 09:16:27;;;;;;;33.10;30.53;;;15.50;44.50;;;;;;5092692;28;21038;-78
2021/04/24 09:18:54;;;;;;;31.80;29.50;;;15.60;44.50;;;;;;5093180;28;20522;-79
2021/04/24 09:21:21;;;;;;;31.93;29.63;;;15.70;44.70;;;;;;5093179;28;20465;-78
2021/04/24 09:23:48;;;;;;;32.97;30.10;;;15.50;44.90;;;;;;5092580;28;20457;-75
2021/04/24 09:26:15;;;;;;;32.03;29.83;;;15.60;44.80;;;;;;5092237;28;20457;-75
2021/04/24 09:28:43;;;;;;;33.90;31.00;;;15.60;44.70;;;;;;5092707;28;20505;-75
2021/04/24 09:31:14;;;;;;;34.70;31.83;;;15.70;44.10;;;;;;5092788;28;20465;-75
2021/04/24 09:33:43;;;;;;;32.60;30.10;;;15.90;43.60;;;;;;5092923;28;20653;-75
2021/04/24 09:36:13;;;;;;;32.93;30.23;;;15.90;43.90;;;;;;5092165;28;20536;-75
2021/04/24 09:38:42;;;;;;;33.43;30.83;;;16.00;43.60;;;;;;5092909;28;20449;-75
2021/04/24 09:41:16;;;;;;;34.07;31.17;;;16.20;42.50;;;;;;5092732;28;21025;-76
2021/04/24 09:43:57;;;;;;;32.70;30.10;;;16.30;41.80;;;;;;5092758;28;20456;-77
2021/04/24 09:46:27;;;;;;;34.23;30.90;;;16.40;41.50;;;;;;5094308;28;20460;-78
2021/04/24 09:49:16;;;;;;;33.73;30.97;;;16.40;41.00;;;;;;5092959;28;20504;-77
2021/04/24 09:51:45;;;;;;;31.60;29.20;;;16.30;40.50;;;;;;5092836;28;20535;-77
2021/04/24 09:54:11;;;;;;;32.33;29.90;;;16.30;39.70;;;;;;5092756;28;20456;-77
2021/04/24 09:56:38;;;;;;;33.47;30.90;;;16.20;39.70;;;;;;5091066;28;20449;-76
2021/04/24 09:59:07;;;;;;;32.70;30.13;;;16.40;39.50;;;;;;5092563;28;20448;-77
2021/04/24 10:01:36;;;;;;;33.23;30.50;;;16.50;39.50;;;;;;5092458;28;20508;-76
2021/04/24 10:04:03;;;;;;;32.60;30.20;;;16.80;39.50;;;;;;5092506;28;20460;-77
2021/04/24 10:06:36;;;;;;;32.70;30.30;;;16.80;38.90;;;;;;5091778;28;20445;-76
2021/04/24 10:09:24;;;;;;;35.57;30.63;;;16.70;38.90;;;;;;5092263;28;20564;-77
2021/04/24 10:12:08;;;;;;;32.27;29.80;;;16.90;38.40;;;;;;5086693;28;20513;-77
2021/04/24 10:14:36;;;;;;;35.37;32.23;;;17.10;37.80;;;;;;5092401;28;20449;-76
2021/04/24 10:17:04;;;;;;;33.60;31.00;;;17.10;37.70;;;;;;5092117;28;21441;-77
2021/04/24 10:19:32;;;;;;;32.43;30.13;;;17.20;37.80;;;;;;5092321;28;20518;-77
2021/04/24 10:21:59;;;;;;;32.83;30.13;;;17.30;37.90;;;;;;5091924;28;20491;-76
2021/04/24 10:24:27;;;;;;;32.33;29.83;;;17.20;37.60;;;;;;5092078;28;20482;-77
2021/04/24 10:26:55;;;;;;;33.20;30.70;;;17.20;37.80;;;;;;5091357;28;20548;-76
2021/04/24 10:29:23;;;;;;;35.33;32.60;;;17.20;37.90;;;;;;5092127;28;20477;-76
2021/04/24 10:31:50;;;;;;;32.90;30.27;;;17.20;37.40;;;;;;5092077;28;20542;-76
2021/04/24 10:34:17;;;;;;;32.37;30.07;;;17.20;37.40;;;;;;5092204;28;20532;-76
2021/04/24 10:36:44;;;;;;;34.13;31.17;;;17.40;37.20;;;;;;5091800;28;20503;-77
2021/04/24 10:39:18;;;;;;;33.73;31.10;;;17.40;37.20;;;;;;5091886;28;20449;-76
2021/04/24 10:41:47;;;;;;;33.77;30.97;;;17.50;36.90;;;;;;5092141;28;20466;-77
2021/04/24 10:44:16;;;;;;;33.73;30.77;;;17.60;36.60;;;;;;5092147;28;20459;-76
2021/04/24 10:46:47;;;;;;;32.37;29.97;;;17.60;36.90;;;;;;5091464;28;20508;-76
2021/04/24 10:49:25;;;;;;;33.60;30.97;;;17.60;36.20;;;;;;5092117;28;20583;-77
2021/04/24 10:52:07;;;;;;;34.37;31.10;;;17.70;36.30;;;;;;5091915;28;20471;-76
2021/04/24 10:54:37;;;;;;;33.60;31.20;;;17.70;36.20;;;;;;5091766;28;20966;-76
2021/04/24 10:57:43;;;;;;;32.73;30.40;;;17.70;36.50;;;;;;5091494;28;20550;-77
2021/04/24 11:00:12;;;;;;;33.60;31.10;;;17.90;36.20;;;;;;5091819;28;20983;-77
2021/04/24 11:02:41;;;;;;;33.57;31.17;;;17.90;36.40;;;;;;5091899;28;20536;-77
2021/04/24 11:05:26;;;;;;;33.60;31.07;;;18.00;36.50;;;;;;5091859;28;20615;-76
2021/04/24 11:08:36;;;;;;;32.37;29.90;;;18.20;35.50;;;;;;5094601;28;20449;-76
2021/04/24 11:11:05;;;;;;;32.90;30.40;;;18.30;34.80;;;;;;5095958;28;20560;-77
2021/04/24 11:13:35;;;;;;;33.93;31.37;;;18.30;35.10;;;;;;5095747;28;20488;-77
2021/04/24 11:16:03;;;;;;;34.17;31.47;;;18.20;35.30;;;;;;5095215;28;20939;-76
2021/04/24 11:18:31;;;;;;;34.10;31.60;;;18.20;35.20;;;;;;5095375;28;20455;-77
2021/04/24 11:21:01;;;;;;;33.77;31.23;;;18.10;35.60;;;;;;5095417;28;20472;-77
2021/04/24 11:23:53;;;;;;;33.20;30.70;;;18.10;35.60;;;;;;5094926;28;20453;-77
2021/04/24 11:26:49;;;;;;;33.93;31.10;;;18.20;35.60;;;;;;5095030;28;20493;-77
2021/04/24 11:29:35;;;;;;;33.50;30.73;;;18.30;35.10;;;;;;5087559;28;20526;-77
2021/04/24 11:32:06;;;;;;;36.30;32.83;;;18.30;34.90;;;;;;5095347;28;20864;-77
2021/04/24 11:34:46;;;;;;;33.80;31.27;;;18.30;34.80;;;;;;5095293;28;20480;-77
2021/04/24 11:37:35;;;;;;;33.80;30.87;;;18.40;34.70;;;;;;5094695;28;20445;-77
2021/04/24 11:40:26;;;;;;;32.40;29.97;;;18.40;34.90;;;;;;5095193;28;20501;-77
2021/04/24 11:43:12;;;;;;;33.50;30.90;;;18.40;34.20;;;;;;5095097;28;20429;-77
2021/04/24 11:46:01;;;;;;;34.37;31.60;;;18.30;34.50;;;;;;5094308;28;20455;-76
2021/04/24 11:49:05;;;;;;;31.70;29.60;;;18.40;34.60;;;;;;5094885;28;20961;-76
2021/04/24 11:51:41;;;;;;;34.00;31.40;;;18.40;34.50;;;;;;5094885;28;20476;-77
2021/04/24 11:54:10;;;;;;;34.93;32.03;;;18.60;33.70;;;;;;5094885;28;20460;-77
2021/04/24 11:56:39;;;;;;;36.57;32.67;;;18.70;33.60;;;;;;5094392;28;20486;-76
2021/04/24 11:59:05;;;;;;;33.83;31.40;;;18.80;33.40;;;;;;5094689;28;20441;-77
2021/04/24 12:01:33;;;;;;;35.17;32.50;;;18.80;33.60;;;;;;5094651;28;20525;-77
2021/04/24 12:03:59;;;;;;;33.07;30.67;;;18.90;33.20;;;;;;5094783;28;20870;-77
2021/04/24 12:06:39;;;;;;;33.00;30.50;;;18.90;32.90;;;;;;5094210;28;20464;-77
2021/04/24 12:09:09;;;;;;;33.13;30.50;;;18.90;33.00;;;;;;5094366;28;20822;-77
2021/04/24 12:11:36;;;;;;;34.27;31.77;;;18.80;33.00;;;;;;5094647;28;20466;-77
2021/04/24 12:14:03;;;;;;;33.23;30.57;;;18.80;32.70;;;;;;5094531;28;20532;-77
2021/04/24 12:16:45;;;;;;;33.97;31.53;;;18.80;32.80;;;;;;5094197;28;20953;-76
2021/04/24 12:19:36;;;;;;;33.50;31.10;;;18.90;32.70;;;;;;5093298;28;20815;-76
2021/04/24 12:22:13;;;;;;;33.17;30.63;;;18.90;32.70;;;;;;5074654;28;20529;-76
2021/04/24 12:24:55;;;;;;;34.50;31.50;;;19.10;32.40;;;;;;5094365;28;20531;-76
2021/04/24 12:27:23;;;;;;;35.00;31.70;;;19.10;32.50;;;;;;5093368;28;20502;-77
2021/04/24 12:29:51;;;;;;;33.37;30.90;;;19.10;32.50;;;;;;5093947;28;20479;-77
2021/04/24 12:32:20;;;;;;;34.37;31.77;;;19.30;32.20;;;;;;5094363;28;20449;-77
2021/04/24 12:34:46;;;;;;;35.90;33.03;;;19.30;32.00;;;;;;5094073;28;21234;-77
2021/04/24 12:37:17;;;;;;;33.33;30.83;;;19.30;32.10;;;;;;5093459;28;20460;-77
2021/04/24 12:39:44;;;;;;;34.70;32.30;;;19.40;32.10;;;;;;5094040;28;20576;-76
2021/04/24 12:42:13;;;;;;;35.10;32.10;;;19.20;31.80;;;;;;5094058;28;20477;-77